createdAt,value
2018-05-23T00:02:06.079Z,32.00
2018-05-23T00:04:32.359Z,31.63
2018-05-23T00:06:58.641Z,31.53
2018-05-23T00:09:24.917Z,32.93
2018-05-23T00:11:51.185Z,31.60
2018-05-23T00:14:17.802Z,31.60
2018-05-23T00:16:44.290Z,30.83
2018-05-23T00:19:10.777Z,34.33
2018-05-23T00:21:37.321Z,32.43
2018-05-23T00:24:04.375Z,32.43
2018-05-23T00:26:30.670Z,31.17
2018-05-23T00:28:56.930Z,31.20
2018-05-23T00:31:23.229Z,31.80
2018-05-23T00:33:49.481Z,33.37
2018-05-23T00:36:15.719Z,31.57
2018-05-23T00:38:41.950Z,31.73
2018-05-23T00:41:08.199Z,35.93
2018-05-23T00:43:34.437Z,31.80
2018-05-23T00:46:00.708Z,34.93
2018-05-23T00:48:26.962Z,37.80
2018-05-23T00:50:53.261Z,35.87
2018-05-23T00:53:19.498Z,36.23
2018-05-23T00:55:45.775Z,36.93
2018-05-23T00:58:12.007Z,35.87
2018-05-23T01:00:38.741Z,33.20
2018-05-23T01:03:04.979Z,35.33
2018-05-23T01:05:31.247Z,35.40
2018-05-23T01:07:58.334Z,38.77
2018-05-23T01:10:24.594Z,36.50
2018-05-23T01:12:50.922Z,36.77
2018-05-23T01:15:17.621Z,37.37
2018-05-23T01:17:43.907Z,37.90
2018-05-23T01:20:10.173Z,37.20
2018-05-23T01:22:36.487Z,40.83
2018-05-23T01:25:03.507Z,37.47
2018-05-23T01:27:29.751Z,35.67
2018-05-23T01:29:56.010Z,36.10
2018-05-23T01:32:23.002Z,35.60
2018-05-23T01:34:49.379Z,37.53
2018-05-23T01:37:16.361Z,38.67
2018-05-23T01:39:42.620Z,38.33
2018-05-23T01:42:08.853Z,37.00
2018-05-23T01:44:35.122Z,39.83
2018-05-23T01:47:01.362Z,39.10
2018-05-23T01:49:27.625Z,42.67
2018-05-23T01:51:53.910Z,39.87
2018-05-23T01:54:20.133Z,40.87
2018-05-23T01:56:46.417Z,40.83
2018-05-23T01:59:12.660Z,42.70
2018-05-23T02:01:38.916Z,41.50
2018-05-23T02:04:05.187Z,41.07
2018-05-23T02:06:32.295Z,39.43
2018-05-23T02:08:58.527Z,41.57
2018-05-23T02:11:24.798Z,40.33
2018-05-23T02:13:51.050Z,41.20
2018-05-23T02:16:17.309Z,38.27
2018-05-23T02:18:43.539Z,40.27
2018-05-23T02:21:09.797Z,43.07
2018-05-23T02:23:36.063Z,41.47
2018-05-23T02:26:02.345Z,39.77
2018-05-23T02:28:28.610Z,38.23
2018-05-23T02:30:54.903Z,38.87
2018-05-23T02:33:21.179Z,39.40
2018-05-23T02:35:47.458Z,39.57
2018-05-23T02:38:13.686Z,41.27
2018-05-23T02:40:39.947Z,42.03
2018-05-23T02:43:06.255Z,43.30
2018-05-23T02:45:32.526Z,40.63
2018-05-23T02:47:59.506Z,42.40
2018-05-23T02:50:25.810Z,39.50
2018-05-23T02:52:52.802Z,39.23
2018-05-23T02:55:19.042Z,40.20
2018-05-23T02:57:47.886Z,39.80
2018-05-23T03:00:14.861Z,40.20
2018-05-23T03:02:41.195Z,39.33
2018-05-23T03:05:07.441Z,41.20
2018-05-23T03:07:33.742Z,39.23
2018-05-23T03:09:59.981Z,41.70
2018-05-23T03:12:26.250Z,40.33
2018-05-23T03:14:52.715Z,41.00
2018-05-23T03:17:18.982Z,42.33
2018-05-23T03:19:45.218Z,40.23
2018-05-23T03:22:11.560Z,40.70
2018-05-23T03:24:37.734Z,40.17
2018-05-23T03:27:04.018Z,43.97
2018-05-23T03:29:30.266Z,41.57
2018-05-23T03:31:56.528Z,43.17
2018-05-23T03:34:22.766Z,40.53
2018-05-23T03:36:49.769Z,42.20
2018-05-23T03:39:16.117Z,40.10
2018-05-23T03:41:42.388Z,41.10
2018-05-23T03:44:09.369Z,44.03
2018-05-23T03:46:35.645Z,39.53
2018-05-23T03:49:01.907Z,42.97
2018-05-23T03:51:28.186Z,41.90
2018-05-23T03:53:54.426Z,39.53
2018-05-23T03:56:20.674Z,39.67
2018-05-23T03:58:46.976Z,43.97
2018-05-23T04:01:25.406Z,43.83
2018-05-23T04:04:03.758Z,42.10
2018-05-23T04:06:43.537Z,39.23
2018-05-23T04:09:09.931Z,47.07
2018-05-23T04:11:36.910Z,42.13
2018-05-23T04:14:03.193Z,38.90
2018-05-23T04:16:29.455Z,42.10
2018-05-23T04:18:56.454Z,43.60
2018-05-23T04:21:22.809Z,44.83
2018-05-23T04:23:49.067Z,43.70
2018-05-23T04:26:16.061Z,42.20
2018-05-23T04:28:42.331Z,45.63
2018-05-23T04:31:08.603Z,42.67
2018-05-23T04:33:34.870Z,42.63
2018-05-23T04:36:01.122Z,42.37
2018-05-23T04:38:27.378Z,41.07
2018-05-23T04:40:54.490Z,42.60
2018-05-23T04:43:20.769Z,42.20
2018-05-23T04:45:47.078Z,44.23
2018-05-23T04:48:14.071Z,40.27
2018-05-23T04:50:40.334Z,41.63
2018-05-23T04:53:06.618Z,42.83
2018-05-23T04:55:32.878Z,42.43
2018-05-23T04:57:59.150Z,41.57
2018-05-23T05:00:26.141Z,41.13
2018-05-23T05:02:52.409Z,41.73
2018-05-23T05:05:18.634Z,40.23
2018-05-23T05:07:44.876Z,38.23
2018-05-23T05:10:11.155Z,38.60
2018-05-23T05:12:37.415Z,40.73
2018-05-23T05:15:03.713Z,39.67
2018-05-23T05:17:29.946Z,39.73
2018-05-23T05:19:56.202Z,38.53
2018-05-23T05:22:22.462Z,38.67
2018-05-23T05:24:48.741Z,38.47
2018-05-23T05:27:15.002Z,46.70
2018-05-23T05:29:41.266Z,38.73
2018-05-23T05:32:07.502Z,37.63
2018-05-23T05:34:34.532Z,37.73
2018-05-23T05:37:00.760Z,39.00
2018-05-23T05:39:27.039Z,38.00
2018-05-23T05:41:53.363Z,40.73
2018-05-23T05:44:19.641Z,38.87
2018-05-23T05:46:45.893Z,37.90
2018-05-23T05:49:12.204Z,38.23
2018-05-23T05:51:38.469Z,39.37
2018-05-23T05:54:05.471Z,37.93
2018-05-23T05:56:31.717Z,39.20
2018-05-23T05:58:57.986Z,38.23
2018-05-23T06:01:25.247Z,57.23
2018-05-23T06:03:51.519Z,60.57
2018-05-23T06:06:17.762Z,42.67
2018-05-23T06:08:44.066Z,41.13
2018-05-23T06:11:10.330Z,37.27
2018-05-23T06:13:36.591Z,40.17
2018-05-23T06:16:02.834Z,41.10
2018-05-23T06:18:29.093Z,38.63
2018-05-23T06:20:55.421Z,41.13
2018-05-23T06:23:21.665Z,41.00
2018-05-23T06:25:47.921Z,42.47
2018-05-23T06:28:14.141Z,43.10
2018-05-23T06:30:40.393Z,44.50
2018-05-23T06:33:06.626Z,50.97
2018-05-23T06:35:32.906Z,51.73
2018-05-23T06:37:59.509Z,48.47
2018-05-23T06:40:25.757Z,49.43
2018-05-23T06:42:52.842Z,46.23
2018-05-23T06:45:19.106Z,47.30
2018-05-23T06:47:45.340Z,48.83
2018-05-23T06:50:11.614Z,45.37
2018-05-23T06:52:37.858Z,46.03
2018-05-23T06:55:04.241Z,45.63
2018-05-23T06:57:30.462Z,52.07
2018-05-23T06:59:56.720Z,55.87
2018-05-23T07:02:23.816Z,47.57
2018-05-23T07:04:50.083Z,46.73
2018-05-23T07:07:16.355Z,47.87
2018-05-23T07:09:42.641Z,48.23
2018-05-23T07:12:08.862Z,60.67
2018-05-23T07:14:35.158Z,54.13
2018-05-23T07:17:01.415Z,49.33
2018-05-23T07:19:27.674Z,52.53
2018-05-23T07:21:53.905Z,50.23
2018-05-23T07:24:20.157Z,48.83
2018-05-23T07:26:47.243Z,50.47
2018-05-23T07:29:13.473Z,51.17
2018-05-23T07:31:39.792Z,46.17
2018-05-23T07:34:05.993Z,47.80
2018-05-23T07:36:32.236Z,48.93
2018-05-23T07:38:58.498Z,52.50
2018-05-23T07:41:24.789Z,54.93
2018-05-23T07:43:51.034Z,53.53
2018-05-23T07:46:17.333Z,52.30
2018-05-23T07:48:43.614Z,51.47
2018-05-23T07:51:10.653Z,56.47
2018-05-23T07:53:36.902Z,55.07
2018-05-23T07:56:03.267Z,60.67
2018-05-23T07:58:30.878Z,57.80
2018-05-23T08:01:12.109Z,55.13
2018-05-23T08:03:38.860Z,54.07
2018-05-23T08:06:05.137Z,55.93
2018-05-23T08:08:32.756Z,54.70
2018-05-23T08:10:59.076Z,51.10
2018-05-23T08:13:26.834Z,55.43
2018-05-23T08:15:53.090Z,54.40
2018-05-23T08:18:19.402Z,52.27
2018-05-23T08:20:45.673Z,52.17
2018-05-23T08:23:12.650Z,51.43
2018-05-23T08:25:38.902Z,51.83
2018-05-23T08:28:05.147Z,51.50
2018-05-23T08:30:31.405Z,46.53
2018-05-23T08:32:57.670Z,41.00
2018-05-23T08:35:23.938Z,47.43
2018-05-23T08:37:50.219Z,43.17
2018-05-23T08:40:17.220Z,50.37
2018-05-23T08:42:43.453Z,49.00
2018-05-23T08:45:09.694Z,44.80
2018-05-23T08:47:36.087Z,43.97
2018-05-23T08:50:02.521Z,42.53
2018-05-23T08:52:28.785Z,43.20
2018-05-23T08:54:55.109Z,43.13
2018-05-23T08:57:21.750Z,43.83
2018-05-23T08:59:48.185Z,45.03
2018-05-23T09:02:14.558Z,46.80
2018-05-23T09:04:42.162Z,47.40
2018-05-23T09:07:08.457Z,48.27
2018-05-23T09:09:35.453Z,47.63
2018-05-23T09:12:01.734Z,47.87
2018-05-23T09:14:28.720Z,50.77
2018-05-23T09:16:55.855Z,48.13
2018-05-23T09:19:23.174Z,46.97
2018-05-23T09:21:49.425Z,44.63
2018-05-23T09:24:16.402Z,39.47
2018-05-23T09:26:42.725Z,40.97
2018-05-23T09:29:08.954Z,41.30
2018-05-23T09:31:35.382Z,45.03
2018-05-23T09:34:01.627Z,43.73
2018-05-23T09:36:27.874Z,41.73
2018-05-23T09:38:54.150Z,42.30
2018-05-23T09:41:21.162Z,37.63
2018-05-23T09:43:47.398Z,41.90
2018-05-23T09:46:13.651Z,35.27
2018-05-23T09:48:39.882Z,35.87
2018-05-23T09:51:06.220Z,35.43
2018-05-23T09:53:32.501Z,35.70
2018-05-23T09:55:58.745Z,39.53
2018-05-23T09:58:25.006Z,41.13
2018-05-23T10:00:51.254Z,49.50
2018-05-23T10:03:17.567Z,38.17
2018-05-23T10:05:43.810Z,39.60
2018-05-23T10:08:10.070Z,37.90
2018-05-23T10:10:36.317Z,43.30
2018-05-23T10:13:02.599Z,36.07
2018-05-23T10:15:30.432Z,30.87
2018-05-23T10:17:56.814Z,35.97
2018-05-23T10:20:23.061Z,23.83
2018-05-23T10:22:50.057Z,21.97
2018-05-23T10:25:16.385Z,25.43
2018-05-23T10:27:42.630Z,19.10
2018-05-23T10:30:08.891Z,23.30
2018-05-23T10:32:35.941Z,18.33
2018-05-23T10:35:02.986Z,16.97
2018-05-23T10:37:29.245Z,19.70
2018-05-23T10:39:55.661Z,17.13
2018-05-23T10:42:22.649Z,15.83
2018-05-23T10:44:48.910Z,14.33
2018-05-23T10:47:15.164Z,11.60
2018-05-23T10:49:41.417Z,10.80
2018-05-23T10:52:07.789Z,10.13
2018-05-23T10:54:34.054Z,10.63
2018-05-23T10:57:00.386Z,10.70
2018-05-23T10:59:26.614Z,23.80
2018-05-23T11:01:53.678Z,11.87
2018-05-23T11:04:20.078Z,10.37
2018-05-23T11:06:46.317Z,11.20
2018-05-23T11:09:12.592Z,7.90
2018-05-23T11:11:38.902Z,8.50
2018-05-23T11:14:05.217Z,8.27
2018-05-23T11:16:31.474Z,10.13
2018-05-23T11:18:58.458Z,10.67
2018-05-23T11:21:24.806Z,12.13
2018-05-23T11:23:51.041Z,11.17
2018-05-23T11:26:17.458Z,9.23
2018-05-23T11:28:43.698Z,12.27
2018-05-23T11:31:09.961Z,10.40
2018-05-23T11:33:36.287Z,7.43
2018-05-23T11:36:02.563Z,9.30
2018-05-23T11:38:29.474Z,27.37
2018-05-23T11:40:55.846Z,13.90
2018-05-23T11:43:22.090Z,11.33
2018-05-23T11:45:48.353Z,15.00
2018-05-23T11:48:14.659Z,8.43
2018-05-23T11:50:40.938Z,11.53
2018-05-23T11:53:07.241Z,9.67
2018-05-23T11:55:33.511Z,9.70
2018-05-23T11:57:59.738Z,6.57
2018-05-23T12:00:26.528Z,12.43
2018-05-23T12:02:52.825Z,5.57
2018-05-23T12:05:19.805Z,30.17
2018-05-23T12:07:46.094Z,9.47
2018-05-23T12:10:12.411Z,9.90
2018-05-23T12:12:38.650Z,10.37
2018-05-23T12:15:04.942Z,9.20
2018-05-23T12:17:31.398Z,6.33
2018-05-23T12:19:58.442Z,4.43
2018-05-23T12:22:24.741Z,7.10
2018-05-23T12:24:51.002Z,3.70
2018-05-23T12:27:17.298Z,4.57
2018-05-23T12:29:43.542Z,6.20
2018-05-23T12:32:09.932Z,6.03
2018-05-23T12:34:36.097Z,6.53
2018-05-23T12:37:02.365Z,6.87
2018-05-23T12:39:28.613Z,5.37
2018-05-23T12:41:54.878Z,4.50
2018-05-23T12:44:21.858Z,4.70
2018-05-23T12:46:48.107Z,4.67
2018-05-23T12:49:14.358Z,4.60
2018-05-23T12:51:40.633Z,7.73
2018-05-23T12:54:06.985Z,6.07
2018-05-23T12:56:33.342Z,8.53
2018-05-23T12:58:59.677Z,4.80
2018-05-23T13:01:25.925Z,4.13
2018-05-23T13:03:52.178Z,4.23
2018-05-23T13:06:19.206Z,7.57
2018-05-23T13:08:46.226Z,6.00
2018-05-23T13:11:12.467Z,6.83
2018-05-23T13:13:38.722Z,6.20
2018-05-23T13:16:05.717Z,5.70
2018-05-23T13:18:31.970Z,5.00
2018-05-23T13:20:58.214Z,4.67
2018-05-23T13:23:24.490Z,4.60
2018-05-23T13:25:51.530Z,5.20
2018-05-23T13:28:18.554Z,7.37
2018-05-23T13:30:44.793Z,4.97
2018-05-23T13:33:11.201Z,5.63
2018-05-23T13:35:37.448Z,5.27
2018-05-23T13:38:03.710Z,5.70
2018-05-23T13:40:29.950Z,5.73
2018-05-23T13:42:56.286Z,5.20
2018-05-23T13:45:22.558Z,7.97
2018-05-23T13:47:48.808Z,6.83
2018-05-23T13:50:15.224Z,5.37
2018-05-23T13:52:41.499Z,8.77
2018-05-23T13:55:07.884Z,5.27
2018-05-23T13:57:34.070Z,10.13
2018-05-23T14:00:00.471Z,6.10
2018-05-23T14:02:26.722Z,5.80
2018-05-23T14:04:52.978Z,5.37
2018-05-23T14:07:19.373Z,5.80
2018-05-23T14:09:45.695Z,4.93
2018-05-23T14:12:11.918Z,5.30
2018-05-23T14:14:38.185Z,4.90
2018-05-23T14:17:04.456Z,4.30
2018-05-23T14:19:30.751Z,4.67
2018-05-23T14:21:57.001Z,3.77
2018-05-23T14:24:23.371Z,3.58
2018-05-23T14:26:49.622Z,3.60
2018-05-23T14:29:15.913Z,4.55
2018-05-23T14:31:42.162Z,3.40
2018-05-23T14:34:08.472Z,3.58
2018-05-23T14:36:34.687Z,3.30
2018-05-23T14:39:00.947Z,3.42
2018-05-23T14:41:27.430Z,6.00
2018-05-23T14:43:53.661Z,4.18
2018-05-23T14:46:19.929Z,4.72
2018-05-23T14:48:46.203Z,5.68
2018-05-23T14:51:13.206Z,3.83
2018-05-23T14:53:39.462Z,7.60
2018-05-23T14:56:05.730Z,5.70
2018-05-23T14:58:32.538Z,4.75
2018-05-23T15:00:58.797Z,4.37
2018-05-23T15:03:25.036Z,6.57
2018-05-23T15:05:51.653Z,5.70
2018-05-23T15:08:17.876Z,5.87
2018-05-23T15:10:44.129Z,7.65
2018-05-23T15:13:10.366Z,7.07
2018-05-23T15:15:36.638Z,5.50
2018-05-23T15:18:02.911Z,7.60
2018-05-23T15:20:29.193Z,6.37
2018-05-23T15:22:55.450Z,7.20
2018-05-23T15:25:21.725Z,5.67
2018-05-23T15:27:48.114Z,10.73
2018-05-23T15:30:14.405Z,6.80
2018-05-23T15:32:40.811Z,8.73
2018-05-23T15:35:07.104Z,6.67
2018-05-23T15:37:33.451Z,6.40
2018-05-23T15:39:59.713Z,5.90
2018-05-23T15:42:26.002Z,6.83
2018-05-23T15:44:52.226Z,9.13
2018-05-23T15:47:18.477Z,7.77
2018-05-23T15:49:44.778Z,8.17
2018-05-23T15:52:12.397Z,10.13
2018-05-23T15:54:38.630Z,8.33
2018-05-23T15:57:05.017Z,7.17
2018-05-23T15:59:31.290Z,5.57
2018-05-23T16:01:57.573Z,6.83
2018-05-23T16:04:23.821Z,8.50
2018-05-23T16:06:50.443Z,8.32
2018-05-23T16:09:16.788Z,5.47
2018-05-23T16:11:43.050Z,4.72
2018-05-23T16:14:09.325Z,5.30
2018-05-23T16:16:35.577Z,6.93
2018-05-23T16:19:01.837Z,4.85
2018-05-23T16:21:28.085Z,13.18
2018-05-23T16:23:54.362Z,7.43
2018-05-23T16:26:20.613Z,8.10
2018-05-23T16:28:47.226Z,6.50
2018-05-23T16:31:13.478Z,6.62
2018-05-23T16:33:39.739Z,8.23
2018-05-23T16:36:06.006Z,6.75
2018-05-23T16:38:32.258Z,8.83
2018-05-23T16:40:58.565Z,21.20
2018-05-23T16:43:25.578Z,14.33
2018-05-23T16:45:51.825Z,6.07
2018-05-23T16:48:18.162Z,6.60
2018-05-23T16:50:44.426Z,8.20
2018-05-23T16:53:12.341Z,8.17
2018-05-23T16:55:38.614Z,8.07
2018-05-23T16:58:04.878Z,10.43
2018-05-23T17:00:31.118Z,7.17
2018-05-23T17:02:57.425Z,9.33
2018-05-23T17:05:23.699Z,8.50
2018-05-23T17:07:49.951Z,8.13
2018-05-23T17:10:16.358Z,9.60
2018-05-23T17:12:42.606Z,12.00
2018-05-23T17:15:08.918Z,8.80
2018-05-23T17:17:35.154Z,7.10
2018-05-23T17:20:01.439Z,8.73
2018-05-23T17:22:27.688Z,10.43
2018-05-23T17:24:53.963Z,7.47
2018-05-23T17:27:20.641Z,10.80
2018-05-23T17:29:46.902Z,10.40
2018-05-23T17:32:13.169Z,8.37
2018-05-23T17:34:39.427Z,8.60
2018-05-23T17:37:06.109Z,7.77
2018-05-23T17:39:32.364Z,6.57
2018-05-23T17:41:58.614Z,5.97
2018-05-23T17:44:24.880Z,9.07
2018-05-23T17:46:51.129Z,7.23
2018-05-23T17:49:17.397Z,9.40
2018-05-23T17:51:43.643Z,10.20
2018-05-23T17:54:10.649Z,9.30
2018-05-23T17:56:36.913Z,8.77
2018-05-23T17:59:03.454Z,10.33
2018-05-23T18:01:29.714Z,9.23
2018-05-23T18:03:55.997Z,6.03
2018-05-23T18:06:22.269Z,11.40
2018-05-23T18:08:49.318Z,6.90
2018-05-23T18:11:15.631Z,7.00
2018-05-23T18:13:41.846Z,7.40
2018-05-23T18:16:08.117Z,6.60
2018-05-23T18:18:34.354Z,7.70
2018-05-23T18:21:00.801Z,8.43
2018-05-23T18:23:27.061Z,7.30
2018-05-23T18:25:53.341Z,7.53
2018-05-23T18:28:21.059Z,6.07
2018-05-23T18:30:47.361Z,7.37
2018-05-23T18:33:13.706Z,10.70
2018-05-23T18:35:39.972Z,9.57
2018-05-23T18:38:06.234Z,6.80
2018-05-23T18:40:32.653Z,6.80
2018-05-23T18:42:58.918Z,6.37
2018-05-23T18:45:26.005Z,10.50
2018-05-23T18:47:52.381Z,6.57
2018-05-23T18:50:19.468Z,17.73
2018-05-23T18:52:45.811Z,23.07
2018-05-23T18:55:12.057Z,19.03
2018-05-23T18:57:38.323Z,8.87
2018-05-23T19:00:04.607Z,8.93
2018-05-23T19:02:31.218Z,6.10
2018-05-23T19:04:57.454Z,7.00
2018-05-23T19:07:23.724Z,6.30
2018-05-23T19:09:49.978Z,6.23
2018-05-23T19:12:16.229Z,8.27
2018-05-23T19:14:42.461Z,6.93
2018-05-23T19:17:09.614Z,6.23
2018-05-23T19:19:36.146Z,7.23
2018-05-23T19:22:03.074Z,11.07
2018-05-23T19:24:29.327Z,6.60
2018-05-23T19:26:55.590Z,7.13
2018-05-23T19:29:21.830Z,7.17
2018-05-23T19:31:48.066Z,6.00
2018-05-23T19:34:14.363Z,10.10
2018-05-23T19:36:40.601Z,5.80
2018-05-23T19:39:06.865Z,8.30
2018-05-23T19:41:33.177Z,7.23
2018-05-23T19:43:59.429Z,7.37
2018-05-23T19:46:25.678Z,11.53
2018-05-23T19:48:51.969Z,9.00
2018-05-23T19:51:18.243Z,6.87
2018-05-23T19:53:44.721Z,8.97
2018-05-23T19:56:10.958Z,8.97
2018-05-23T19:58:37.222Z,10.23
2018-05-23T20:01:03.467Z,19.90
2018-05-23T20:03:29.726Z,30.90
2018-05-23T20:05:55.974Z,38.33
2018-05-23T20:08:22.311Z,263.17
2018-05-23T20:10:48.605Z,80.00
2018-05-23T20:13:15.594Z,22.40
2018-05-23T20:15:41.875Z,10.80
2018-05-23T20:18:08.893Z,9.60
2018-05-23T20:20:35.182Z,7.57
2018-05-23T20:23:01.456Z,7.03
2018-05-23T20:25:27.751Z,7.53
2018-05-23T20:27:54.032Z,7.57
2018-05-23T20:30:20.295Z,9.17
2018-05-23T20:32:46.551Z,5.90
2018-05-23T20:35:12.831Z,6.60
2018-05-23T20:37:39.075Z,9.83
2018-05-23T20:40:05.370Z,8.87
2018-05-23T20:42:31.749Z,7.67
2018-05-23T20:44:58.105Z,6.60
2018-05-23T20:47:25.091Z,9.67
2018-05-23T20:49:51.392Z,6.00
2018-05-23T20:52:18.431Z,8.93
2018-05-23T20:54:45.429Z,7.13
2018-05-23T20:57:11.670Z,9.23
2018-05-23T20:59:37.958Z,10.00
2018-05-23T21:02:04.247Z,7.53
2018-05-23T21:04:31.253Z,6.63
2018-05-23T21:06:57.508Z,6.37
2018-05-23T21:09:23.773Z,7.53
2018-05-23T21:11:50.023Z,8.30
2018-05-23T21:14:16.326Z,6.33
2018-05-23T21:16:43.638Z,7.87
2018-05-23T21:19:09.954Z,6.70
2018-05-23T21:21:36.618Z,7.07
2018-05-23T21:24:02.904Z,6.30
2018-05-23T21:26:29.746Z,7.93
2018-05-23T21:28:56.010Z,8.10
2018-05-23T21:31:22.546Z,6.77
2018-05-23T21:33:48.794Z,9.60
2018-05-23T21:36:15.046Z,9.17
2018-05-23T21:38:41.289Z,7.20
2018-05-23T21:41:08.290Z,6.97
2018-05-23T21:43:34.528Z,6.43
2018-05-23T21:46:00.794Z,10.47
2018-05-23T21:48:27.031Z,8.77
2018-05-23T21:50:53.293Z,6.30
2018-05-23T21:53:20.287Z,7.20
2018-05-23T21:55:46.544Z,9.57
2018-05-23T21:58:12.795Z,6.80
2018-05-23T22:00:39.045Z,6.80
2018-05-23T22:03:05.305Z,7.80
2018-05-23T22:05:31.554Z,9.87
2018-05-23T22:07:58.790Z,7.77
2018-05-23T22:10:25.058Z,7.03
2018-05-23T22:12:51.281Z,7.53
2018-05-23T22:15:17.547Z,7.13
2018-05-23T22:17:43.845Z,7.03
2018-05-23T22:20:10.099Z,6.87
2018-05-23T22:22:36.738Z,6.60
2018-05-23T22:25:03.041Z,9.17
2018-05-23T22:27:29.266Z,7.57
2018-05-23T22:29:55.578Z,6.97
2018-05-23T22:32:21.883Z,7.10
2018-05-23T22:34:48.137Z,6.67
2018-05-23T22:37:15.021Z,6.80
2018-05-23T22:39:41.968Z,8.70
2018-05-23T22:42:08.560Z,7.10
2018-05-23T22:44:34.951Z,7.70
2018-05-23T22:47:01.941Z,7.30
2018-05-23T22:49:28.477Z,7.13
2018-05-23T22:51:54.750Z,10.47
2018-05-23T22:54:21.608Z,7.40
2018-05-23T22:56:47.885Z,7.87
2018-05-23T22:59:14.121Z,8.23
2018-05-23T23:01:40.454Z,7.20
2018-05-23T23:04:06.752Z,7.90
2018-05-23T23:06:33.290Z,7.80
2018-05-23T23:09:00.402Z,7.93
2018-05-23T23:11:26.773Z,7.97
2018-05-23T23:13:53.734Z,8.30
2018-05-23T23:16:20.714Z,6.80
2018-05-23T23:18:46.954Z,6.60
2018-05-23T23:21:13.249Z,6.90
2018-05-23T23:23:39.477Z,8.33
2018-05-23T23:26:06.558Z,6.50
2018-05-23T23:28:32.819Z,6.80
2018-05-23T23:30:59.090Z,7.37
2018-05-23T23:33:25.491Z,5.90
2018-05-23T23:35:51.739Z,7.93
2018-05-23T23:38:17.973Z,5.90
2018-05-23T23:40:44.974Z,5.47
2018-05-23T23:43:11.207Z,5.50
2018-05-23T23:45:37.502Z,5.57
2018-05-23T23:48:03.740Z,5.73
2018-05-23T23:50:30.006Z,6.10
2018-05-23T23:52:56.229Z,5.70
2018-05-23T23:55:22.467Z,6.20
2018-05-23T23:57:48.718Z,6.50
